sensor_id;sensor_type;location;lat;lon;timestamp;temperature;humidity
21425;DHT22;10873;51.132;16.848;2023-01-26T00:02:12;23.90;46.70
21425;DHT22;10873;51.132;16.848;2023-01-26T00:04:39;23.80;46.60
21425;DHT22;10873;51.132;16.848;2023-01-26T00:07:05;23.90;46.60
21425;DHT22;10873;51.132;16.848;2023-01-26T00:09:31;23.90;46.70
21425;DHT22;10873;51.132;16.848;2023-01-26T00:11:58;23.90;46.80
21425;DHT22;10873;51.132;16.848;2023-01-26T00:14:23;23.90;46.70
21425;DHT22;10873;51.132;16.848;2023-01-26T00:16:50;23.90;46.70
21425;DHT22;10873;51.132;16.848;2023-01-26T00:19:15;23.90;46.70
21425;DHT22;10873;51.132;16.848;2023-01-26T00:21:43;23.90;46.60
21425;DHT22;10873;51.132;16.848;2023-01-26T00:24:09;23.90;46.70
21425;DHT22;10873;51.132;16.848;2023-01-26T00:26:35;23.90;46.70
21425;DHT22;10873;51.132;16.848;2023-01-26T00:29:01;23.90;46.70
21425;DHT22;10873;51.132;16.848;2023-01-26T00:31:27;23.90;46.60
21425;DHT22;10873;51.132;16.848;2023-01-26T00:33:54;23.80;46.60
21425;DHT22;10873;51.132;16.848;2023-01-26T00:36:21;23.90;46.60
21425;DHT22;10873;51.132;16.848;2023-01-26T00:38:48;23.80;46.60
21425;DHT22;10873;51.132;16.848;2023-01-26T00:41:14;23.90;46.80
21425;DHT22;10873;51.132;16.848;2023-01-26T00:43:59;23.90;46.80
21425;DHT22;10873;51.132;16.848;2023-01-26T00:46:26;23.80;46.70
21425;DHT22;10873;51.132;16.848;2023-01-26T00:48:51;23.80;46.70
21425;DHT22;10873;51.132;16.848;2023-01-26T00:51:18;23.90;46.70
21425;DHT22;10873;51.132;16.848;2023-01-26T00:53:43;23.90;46.70
21425;DHT22;10873;51.132;16.848;2023-01-26T00:56:11;23.90;46.70
21425;DHT22;10873;51.132;16.848;2023-01-26T00:58:39;23.90;46.60
21425;DHT22;10873;51.132;16.848;2023-01-26T01:01:05;23.90;46.70
21425;DHT22;10873;51.132;16.848;2023-01-26T01:03:33;23.90;46.60
21425;DHT22;10873;51.132;16.848;2023-01-26T01:05:59;23.90;46.70
21425;DHT22;10873;51.132;16.848;2023-01-26T01:08:25;23.90;46.70
21425;DHT22;10873;51.132;16.848;2023-01-26T01:11:02;23.90;46.70
21425;DHT22;10873;51.132;16.848;2023-01-26T01:13:29;23.90;46.80
21425;DHT22;10873;51.132;16.848;2023-01-26T01:15:55;23.80;46.70
21425;DHT22;10873;51.132;16.848;2023-01-26T01:18:21;23.90;46.80
21425;DHT22;10873;51.132;16.848;2023-01-26T01:20:47;23.90;46.80
21425;DHT22;10873;51.132;16.848;2023-01-26T01:23:13;23.90;46.70
21425;DHT22;10873;51.132;16.848;2023-01-26T01:25:39;23.90;46.70
21425;DHT22;10873;51.132;16.848;2023-01-26T01:28:05;23.90;46.70
21425;DHT22;10873;51.132;16.848;2023-01-26T01:30:32;23.90;46.70
21425;DHT22;10873;51.132;16.848;2023-01-26T01:32:58;23.90;46.60
21425;DHT22;10873;51.132;16.848;2023-01-26T01:35:24;23.90;46.60
21425;DHT22;10873;51.132;16.848;2023-01-26T01:37:50;23.90;46.70
21425;DHT22;10873;51.132;16.848;2023-01-26T01:40:16;23.90;46.60
21425;DHT22;10873;51.132;16.848;2023-01-26T01:42:46;23.80;46.60
21425;DHT22;10873;51.132;16.848;2023-01-26T01:45:36;23.90;46.80
21425;DHT22;10873;51.132;16.848;2023-01-26T01:48:08;23.80;46.70
21425;DHT22;10873;51.132;16.848;2023-01-26T01:50:38;23.80;46.60
21425;DHT22;10873;51.132;16.848;2023-01-26T01:53:05;23.90;46.70
21425;DHT22;10873;51.132;16.848;2023-01-26T01:55:32;23.90;46.60
21425;DHT22;10873;51.132;16.848;2023-01-26T01:58:00;23.90;46.60
21425;DHT22;10873;51.132;16.848;2023-01-26T02:00:28;23.90;46.60
21425;DHT22;10873;51.132;16.848;2023-01-26T02:02:58;23.90;46.60
21425;DHT22;10873;51.132;16.848;2023-01-26T02:05:49;23.90;46.50
21425;DHT22;10873;51.132;16.848;2023-01-26T02:08:18;23.80;46.60
21425;DHT22;10873;51.132;16.848;2023-01-26T02:10:48;23.90;46.70
21425;DHT22;10873;51.132;16.848;2023-01-26T02:13:15;23.90;46.60
21425;DHT22;10873;51.132;16.848;2023-01-26T02:15:42;23.90;46.70
21425;DHT22;10873;51.132;16.848;2023-01-26T02:18:09;23.90;46.70
21425;DHT22;10873;51.132;16.848;2023-01-26T02:20:42;23.90;46.70
21425;DHT22;10873;51.132;16.848;2023-01-26T02:23:16;23.90;46.70
21425;DHT22;10873;51.132;16.848;2023-01-26T02:28:42;23.90;46.70
21425;DHT22;10873;51.132;16.848;2023-01-26T02:31:09;23.90;46.60
21425;DHT22;10873;51.132;16.848;2023-01-26T02:33:36;23.80;46.50
21425;DHT22;10873;51.132;16.848;2023-01-26T02:36:04;23.90;46.60
21425;DHT22;10873;51.132;16.848;2023-01-26T02:38:35;23.90;46.60
21425;DHT22;10873;51.132;16.848;2023-01-26T02:41:05;23.80;46.50
21425;DHT22;10873;51.132;16.848;2023-01-26T02:43:32;23.80;46.50
21425;DHT22;10873;51.132;16.848;2023-01-26T02:45:59;23.90;46.60
21425;DHT22;10873;51.132;16.848;2023-01-26T02:48:25;23.80;46.60
21425;DHT22;10873;51.132;16.848;2023-01-26T02:51:09;23.90;46.80
21425;DHT22;10873;51.132;16.848;2023-01-26T02:53:35;23.90;46.60
21425;DHT22;10873;51.132;16.848;2023-01-26T02:56:01;23.90;46.60
21425;DHT22;10873;51.132;16.848;2023-01-26T02:58:27;23.80;46.50
21425;DHT22;10873;51.132;16.848;2023-01-26T03:00:54;23.90;46.50
21425;DHT22;10873;51.132;16.848;2023-01-26T03:03:23;23.80;46.40
21425;DHT22;10873;51.132;16.848;2023-01-26T03:05:49;23.90;46.50
21425;DHT22;10873;51.132;16.848;2023-01-26T03:08:15;23.80;46.50
21425;DHT22;10873;51.132;16.848;2023-01-26T03:10:42;23.90;46.50
21425;DHT22;10873;51.132;16.848;2023-01-26T03:13:08;23.90;46.40
21425;DHT22;10873;51.132;16.848;2023-01-26T03:15:34;23.80;46.40
21425;DHT22;10873;51.132;16.848;2023-01-26T03:18:09;23.90;46.50
21425;DHT22;10873;51.132;16.848;2023-01-26T03:20:55;23.90;46.50
21425;DHT22;10873;51.132;16.848;2023-01-26T03:23:41;23.90;46.50
21425;DHT22;10873;51.132;16.848;2023-01-26T03:26:26;23.80;46.50
21425;DHT22;10873;51.132;16.848;2023-01-26T03:29:10;23.90;46.40
21425;DHT22;10873;51.132;16.848;2023-01-26T03:31:36;23.90;46.40
21425;DHT22;10873;51.132;16.848;2023-01-26T03:34:02;23.90;46.40
21425;DHT22;10873;51.132;16.848;2023-01-26T03:36:30;23.90;46.40
21425;DHT22;10873;51.132;16.848;2023-01-26T03:38:56;23.90;46.40
21425;DHT22;10873;51.132;16.848;2023-01-26T03:41:22;23.90;46.40
21425;DHT22;10873;51.132;16.848;2023-01-26T03:44:06;23.80;46.40
21425;DHT22;10873;51.132;16.848;2023-01-26T03:46:51;23.90;46.40
21425;DHT22;10873;51.132;16.848;2023-01-26T03:49:36;23.80;46.40
21425;DHT22;10873;51.132;16.848;2023-01-26T03:52:22;23.90;46.40
21425;DHT22;10873;51.132;16.848;2023-01-26T03:55:07;23.90;46.40
21425;DHT22;10873;51.132;16.848;2023-01-26T03:57:52;23.90;46.30
21425;DHT22;10873;51.132;16.848;2023-01-26T04:00:18;23.80;46.30
21425;DHT22;10873;51.132;16.848;2023-01-26T04:02:46;23.90;46.30
21425;DHT22;10873;51.132;16.848;2023-01-26T04:05:31;23.90;46.30
21425;DHT22;10873;51.132;16.848;2023-01-26T04:08:17;23.90;46.30
21425;DHT22;10873;51.132;16.848;2023-01-26T04:10:48;23.80;46.30
21425;DHT22;10873;51.132;16.848;2023-01-26T04:13:16;23.80;46.20
21425;DHT22;10873;51.132;16.848;2023-01-26T04:16:02;23.80;46.30
21425;DHT22;10873;51.132;16.848;2023-01-26T04:18:47;23.80;46.30
21425;DHT22;10873;51.132;16.848;2023-01-26T04:21:31;23.80;46.30
21425;DHT22;10873;51.132;16.848;2023-01-26T04:24:03;23.80;46.30
21425;DHT22;10873;51.132;16.848;2023-01-26T04:26:35;23.80;46.20
21425;DHT22;10873;51.132;16.848;2023-01-26T04:29:02;23.80;46.20
21425;DHT22;10873;51.132;16.848;2023-01-26T04:31:28;23.80;46.90
21425;DHT22;10873;51.132;16.848;2023-01-26T04:33:54;23.80;46.20
21425;DHT22;10873;51.132;16.848;2023-01-26T04:36:20;23.90;46.10
21425;DHT22;10873;51.132;16.848;2023-01-26T04:38:47;23.80;46.10
21425;DHT22;10873;51.132;16.848;2023-01-26T04:41:15;23.80;46.10
21425;DHT22;10873;51.132;16.848;2023-01-26T04:43:42;23.80;46.10
21425;DHT22;10873;51.132;16.848;2023-01-26T04:46:08;23.80;46.10
21425;DHT22;10873;51.132;16.848;2023-01-26T04:48:34;23.80;46.00
21425;DHT22;10873;51.132;16.848;2023-01-26T04:51:02;23.80;46.00
21425;DHT22;10873;51.132;16.848;2023-01-26T04:53:30;23.80;46.00
21425;DHT22;10873;51.132;16.848;2023-01-26T04:55:56;23.80;46.00
21425;DHT22;10873;51.132;16.848;2023-01-26T04:58:23;23.80;45.90
21425;DHT22;10873;51.132;16.848;2023-01-26T05:00:50;23.80;45.90
21425;DHT22;10873;51.132;16.848;2023-01-26T05:03:16;23.80;45.90
21425;DHT22;10873;51.132;16.848;2023-01-26T05:05:42;23.80;45.80
21425;DHT22;10873;51.132;16.848;2023-01-26T05:08:08;23.80;45.80
21425;DHT22;10873;51.132;16.848;2023-01-26T05:10:34;23.80;45.80
21425;DHT22;10873;51.132;16.848;2023-01-26T05:13:00;23.70;45.70
21425;DHT22;10873;51.132;16.848;2023-01-26T05:15:28;23.70;45.70
21425;DHT22;10873;51.132;16.848;2023-01-26T05:17:56;23.80;45.70
21425;DHT22;10873;51.132;16.848;2023-01-26T05:20:22;23.70;45.70
21425;DHT22;10873;51.132;16.848;2023-01-26T05:22:48;23.80;45.70
21425;DHT22;10873;51.132;16.848;2023-01-26T05:25:14;23.80;45.60
21425;DHT22;10873;51.132;16.848;2023-01-26T05:27:40;23.80;45.70
21425;DHT22;10873;51.132;16.848;2023-01-26T05:30:07;23.80;45.50
21425;DHT22;10873;51.132;16.848;2023-01-26T05:32:36;23.80;46.10
21425;DHT22;10873;51.132;16.848;2023-01-26T05:35:02;23.80;45.50
21425;DHT22;10873;51.132;16.848;2023-01-26T05:37:28;23.70;45.40
21425;DHT22;10873;51.132;16.848;2023-01-26T05:39:55;23.80;45.40
21425;DHT22;10873;51.132;16.848;2023-01-26T05:42:21;23.80;45.40
21425;DHT22;10873;51.132;16.848;2023-01-26T05:44:48;23.80;45.50
21425;DHT22;10873;51.132;16.848;2023-01-26T05:47:14;23.80;45.40
21425;DHT22;10873;51.132;16.848;2023-01-26T05:49:41;23.80;45.40
21425;DHT22;10873;51.132;16.848;2023-01-26T05:52:08;23.80;45.40
21425;DHT22;10873;51.132;16.848;2023-01-26T05:54:35;23.80;45.40
21425;DHT22;10873;51.132;16.848;2023-01-26T05:57:02;23.80;45.40
21425;DHT22;10873;51.132;16.848;2023-01-26T05:59:28;23.80;45.30
21425;DHT22;10873;51.132;16.848;2023-01-26T06:01:54;23.80;45.20
21425;DHT22;10873;51.132;16.848;2023-01-26T06:04:20;23.80;45.20
21425;DHT22;10873;51.132;16.848;2023-01-26T06:06:48;23.80;45.20
21425;DHT22;10873;51.132;16.848;2023-01-26T06:09:16;23.80;45.10
21425;DHT22;10873;51.132;16.848;2023-01-26T06:11:42;23.80;45.10
21425;DHT22;10873;51.132;16.848;2023-01-26T06:14:08;23.80;45.10
21425;DHT22;10873;51.132;16.848;2023-01-26T06:16:34;23.80;45.10
21425;DHT22;10873;51.132;16.848;2023-01-26T06:19:00;23.80;45.10
21425;DHT22;10873;51.132;16.848;2023-01-26T06:21:26;23.80;45.10
21425;DHT22;10873;51.132;16.848;2023-01-26T06:23:54;23.80;45.00
21425;DHT22;10873;51.132;16.848;2023-01-26T06:26:20;23.80;45.00
21425;DHT22;10873;51.132;16.848;2023-01-26T06:28:46;23.80;45.00
21425;DHT22;10873;51.132;16.848;2023-01-26T06:31:12;23.80;45.00
21425;DHT22;10873;51.132;16.848;2023-01-26T06:33:38;23.80;44.90
21425;DHT22;10873;51.132;16.848;2023-01-26T06:36:07;23.80;45.00
21425;DHT22;10873;51.132;16.848;2023-01-26T06:38:34;23.80;44.90
21425;DHT22;10873;51.132;16.848;2023-01-26T06:41:03;23.80;44.90
21425;DHT22;10873;51.132;16.848;2023-01-26T06:43:29;23.70;45.00
21425;DHT22;10873;51.132;16.848;2023-01-26T06:45:55;23.80;45.00
21425;DHT22;10873;51.132;16.848;2023-01-26T06:48:23;23.80;45.10
21425;DHT22;10873;51.132;16.848;2023-01-26T06:50:50;23.70;45.00
21425;DHT22;10873;51.132;16.848;2023-01-26T06:53:29;23.80;45.10
21425;DHT22;10873;51.132;16.848;2023-01-26T06:55:55;23.80;45.10
21425;DHT22;10873;51.132;16.848;2023-01-26T06:58:22;23.80;45.00
21425;DHT22;10873;51.132;16.848;2023-01-26T07:00:49;23.80;45.00
21425;DHT22;10873;51.132;16.848;2023-01-26T07:03:15;23.80;45.60
21425;DHT22;10873;51.132;16.848;2023-01-26T07:05:41;23.80;45.60
21425;DHT22;10873;51.132;16.848;2023-01-26T07:08:07;23.80;45.50
21425;DHT22;10873;51.132;16.848;2023-01-26T07:10:33;23.80;45.40
21425;DHT22;10873;51.132;16.848;2023-01-26T07:12:59;23.70;45.40
21425;DHT22;10873;51.132;16.848;2023-01-26T07:15:27;23.70;45.40
21425;DHT22;10873;51.132;16.848;2023-01-26T07:17:53;23.80;45.70
21425;DHT22;10873;51.132;16.848;2023-01-26T07:20:19;23.80;47.90
21425;DHT22;10873;51.132;16.848;2023-01-26T07:22:45;23.80;48.10
21425;DHT22;10873;51.132;16.848;2023-01-26T07:25:11;23.80;48.00
21425;DHT22;10873;51.132;16.848;2023-01-26T07:27:37;23.80;48.00
21425;DHT22;10873;51.132;16.848;2023-01-26T07:30:04;23.80;47.90
21425;DHT22;10873;51.132;16.848;2023-01-26T07:32:32;23.80;47.80
21425;DHT22;10873;51.132;16.848;2023-01-26T07:34:58;23.80;47.60
21425;DHT22;10873;51.132;16.848;2023-01-26T07:37:26;23.80;47.50
21425;DHT22;10873;51.132;16.848;2023-01-26T07:39:53;23.80;47.50
21425;DHT22;10873;51.132;16.848;2023-01-26T07:42:19;23.70;47.30
21425;DHT22;10873;51.132;16.848;2023-01-26T07:44:45;23.70;47.30
21425;DHT22;10873;51.132;16.848;2023-01-26T07:47:11;23.70;47.20
21425;DHT22;10873;51.132;16.848;2023-01-26T07:49:39;23.70;47.10
21425;DHT22;10873;51.132;16.848;2023-01-26T07:52:05;23.70;47.10
21425;DHT22;10873;51.132;16.848;2023-01-26T07:54:33;23.70;47.10
21425;DHT22;10873;51.132;16.848;2023-01-26T07:56:59;23.70;47.00
21425;DHT22;10873;51.132;16.848;2023-01-26T07:59:25;23.80;47.00
21425;DHT22;10873;51.132;16.848;2023-01-26T08:01:51;23.70;46.90
21425;DHT22;10873;51.132;16.848;2023-01-26T08:04:17;23.80;46.90
21425;DHT22;10873;51.132;16.848;2023-01-26T08:06:45;23.80;46.80
21425;DHT22;10873;51.132;16.848;2023-01-26T08:09:11;23.80;46.70
21425;DHT22;10873;51.132;16.848;2023-01-26T08:11:37;23.80;46.60
21425;DHT22;10873;51.132;16.848;2023-01-26T08:14:03;23.80;46.60
21425;DHT22;10873;51.132;16.848;2023-01-26T08:16:29;23.80;46.50
21425;DHT22;10873;51.132;16.848;2023-01-26T08:18:55;23.80;46.40
21425;DHT22;10873;51.132;16.848;2023-01-26T08:21:21;23.80;46.20
21425;DHT22;10873;51.132;16.848;2023-01-26T08:23:49;23.80;46.10
21425;DHT22;10873;51.132;16.848;2023-01-26T08:26:15;23.80;46.10
21425;DHT22;10873;51.132;16.848;2023-01-26T08:28:43;23.80;46.10
21425;DHT22;10873;51.132;16.848;2023-01-26T08:31:11;23.80;46.10
21425;DHT22;10873;51.132;16.848;2023-01-26T08:33:38;23.80;46.10
21425;DHT22;10873;51.132;16.848;2023-01-26T08:36:06;23.80;46.20
21425;DHT22;10873;51.132;16.848;2023-01-26T08:38:34;23.80;46.30
21425;DHT22;10873;51.132;16.848;2023-01-26T08:41:02;23.80;46.40
21425;DHT22;10873;51.132;16.848;2023-01-26T08:43:28;23.80;46.40
21425;DHT22;10873;51.132;16.848;2023-01-26T08:45:54;23.80;46.40
21425;DHT22;10873;51.132;16.848;2023-01-26T08:48:21;23.80;46.40
21425;DHT22;10873;51.132;16.848;2023-01-26T08:50:47;23.80;46.40
21425;DHT22;10873;51.132;16.848;2023-01-26T08:53:13;23.80;46.40
21425;DHT22;10873;51.132;16.848;2023-01-26T08:55:39;23.80;46.40
21425;DHT22;10873;51.132;16.848;2023-01-26T08:58:06;23.80;46.40
21425;DHT22;10873;51.132;16.848;2023-01-26T09:00:32;23.80;46.30
21425;DHT22;10873;51.132;16.848;2023-01-26T09:02:59;23.90;46.40
21425;DHT22;10873;51.132;16.848;2023-01-26T09:05:25;23.90;46.40
21425;DHT22;10873;51.132;16.848;2023-01-26T09:07:51;23.80;46.30
21425;DHT22;10873;51.132;16.848;2023-01-26T09:10:17;23.80;46.20
21425;DHT22;10873;51.132;16.848;2023-01-26T09:12:44;23.80;46.20
21425;DHT22;10873;51.132;16.848;2023-01-26T09:15:11;23.80;46.20
21425;DHT22;10873;51.132;16.848;2023-01-26T09:17:37;23.80;46.10
21425;DHT22;10873;51.132;16.848;2023-01-26T09:20:04;23.80;46.10
21425;DHT22;10873;51.132;16.848;2023-01-26T09:22:30;23.80;46.10
21425;DHT22;10873;51.132;16.848;2023-01-26T09:24:56;23.80;46.00
21425;DHT22;10873;51.132;16.848;2023-01-26T09:27:23;23.80;46.00
21425;DHT22;10873;51.132;16.848;2023-01-26T09:29:48;23.80;46.00
21425;DHT22;10873;51.132;16.848;2023-01-26T09:32:16;23.80;46.10
21425;DHT22;10873;51.132;16.848;2023-01-26T09:34:42;23.80;46.20
21425;DHT22;10873;51.132;16.848;2023-01-26T09:37:08;23.80;46.20
21425;DHT22;10873;51.132;16.848;2023-01-26T09:39:34;23.80;46.20
21425;DHT22;10873;51.132;16.848;2023-01-26T09:42:28;23.80;46.20
21425;DHT22;10873;51.132;16.848;2023-01-26T09:45:07;23.80;46.30
21425;DHT22;10873;51.132;16.848;2023-01-26T09:47:51;23.80;46.30
21425;DHT22;10873;51.132;16.848;2023-01-26T09:50:20;23.90;46.30
21425;DHT22;10873;51.132;16.848;2023-01-26T09:52:52;23.90;46.50
21425;DHT22;10873;51.132;16.848;2023-01-26T09:55:20;23.80;46.50
21425;DHT22;10873;51.132;16.848;2023-01-26T09:57:49;23.90;46.60
21425;DHT22;10873;51.132;16.848;2023-01-26T10:00:20;23.90;46.60
21425;DHT22;10873;51.132;16.848;2023-01-26T10:02:55;23.80;46.50
21425;DHT22;10873;51.132;16.848;2023-01-26T10:05:32;23.90;46.60
21425;DHT22;10873;51.132;16.848;2023-01-26T10:08:01;23.90;46.50
21425;DHT22;10873;51.132;16.848;2023-01-26T10:10:31;23.80;46.50
21425;DHT22;10873;51.132;16.848;2023-01-26T10:12:59;23.80;46.50
21425;DHT22;10873;51.132;16.848;2023-01-26T10:15:29;23.90;46.60
21425;DHT22;10873;51.132;16.848;2023-01-26T10:18:01;23.90;46.50
21425;DHT22;10873;51.132;16.848;2023-01-26T10:20:34;23.90;46.50
21425;DHT22;10873;51.132;16.848;2023-01-26T10:23:03;23.90;46.40
21425;DHT22;10873;51.132;16.848;2023-01-26T10:25:35;23.80;46.30
21425;DHT22;10873;51.132;16.848;2023-01-26T10:28:10;23.90;46.30
21425;DHT22;10873;51.132;16.848;2023-01-26T10:30:38;23.80;46.30
21425;DHT22;10873;51.132;16.848;2023-01-26T10:33:13;23.90;46.30
21425;DHT22;10873;51.132;16.848;2023-01-26T10:35:40;23.80;46.20
21425;DHT22;10873;51.132;16.848;2023-01-26T10:38:27;23.90;46.20
21425;DHT22;10873;51.132;16.848;2023-01-26T10:41:04;23.90;46.20
21425;DHT22;10873;51.132;16.848;2023-01-26T10:43:33;23.80;46.10
21425;DHT22;10873;51.132;16.848;2023-01-26T10:46:02;23.80;46.10
21425;DHT22;10873;51.132;16.848;2023-01-26T10:48:30;23.80;46.00
21425;DHT22;10873;51.132;16.848;2023-01-26T10:51:14;23.80;46.00
21425;DHT22;10873;51.132;16.848;2023-01-26T10:53:40;23.80;46.00
21425;DHT22;10873;51.132;16.848;2023-01-26T10:56:11;23.80;45.90
21425;DHT22;10873;51.132;16.848;2023-01-26T10:58:49;23.80;45.90
21425;DHT22;10873;51.132;16.848;2023-01-26T11:01:17;23.80;45.80
21425;DHT22;10873;51.132;16.848;2023-01-26T11:04:04;23.80;45.90
21425;DHT22;10873;51.132;16.848;2023-01-26T11:06:31;23.80;45.90
21425;DHT22;10873;51.132;16.848;2023-01-26T11:09:08;23.80;46.00
21425;DHT22;10873;51.132;16.848;2023-01-26T11:11:35;23.80;46.00
21425;DHT22;10873;51.132;16.848;2023-01-26T11:14:11;23.80;45.90
21425;DHT22;10873;51.132;16.848;2023-01-26T11:16:41;23.80;45.90
21425;DHT22;10873;51.132;16.848;2023-01-26T11:19:13;23.90;45.80
21425;DHT22;10873;51.132;16.848;2023-01-26T11:21:46;23.90;45.80
21425;DHT22;10873;51.132;16.848;2023-01-26T11:24:15;23.80;45.60
21425;DHT22;10873;51.132;16.848;2023-01-26T11:27:03;23.90;45.60
21425;DHT22;10873;51.132;16.848;2023-01-26T11:29:52;23.80;45.50
21425;DHT22;10873;51.132;16.848;2023-01-26T11:32:26;23.90;45.40
21425;DHT22;10873;51.132;16.848;2023-01-26T11:35:07;23.90;45.40
21425;DHT22;10873;51.132;16.848;2023-01-26T11:37:44;23.80;45.20
21425;DHT22;10873;51.132;16.848;2023-01-26T11:40:27;23.90;45.30
21425;DHT22;10873;51.132;16.848;2023-01-26T11:43:11;23.90;45.40
21425;DHT22;10873;51.132;16.848;2023-01-26T11:46:00;23.90;45.40
21425;DHT22;10873;51.132;16.848;2023-01-26T11:48:36;23.90;45.40
21425;DHT22;10873;51.132;16.848;2023-01-26T11:51:10;23.80;45.30
21425;DHT22;10873;51.132;16.848;2023-01-26T11:54:03;23.80;45.30
21425;DHT22;10873;51.132;16.848;2023-01-26T11:56:40;23.80;45.30
21425;DHT22;10873;51.132;16.848;2023-01-26T11:59:12;23.90;45.40
21425;DHT22;10873;51.132;16.848;2023-01-26T12:01:42;23.90;45.40
21425;DHT22;10873;51.132;16.848;2023-01-26T12:04:16;23.90;45.50
21425;DHT22;10873;51.132;16.848;2023-01-26T12:06:45;23.90;45.50
21425;DHT22;10873;51.132;16.848;2023-01-26T12:09:16;23.80;45.60
21425;DHT22;10873;51.132;16.848;2023-01-26T12:11:51;23.90;45.60
21425;DHT22;10873;51.132;16.848;2023-01-26T12:14:25;23.90;45.70
21425;DHT22;10873;51.132;16.848;2023-01-26T12:17:00;23.80;45.70
21425;DHT22;10873;51.132;16.848;2023-01-26T12:19:37;23.80;45.70
21425;DHT22;10873;51.132;16.848;2023-01-26T12:22:12;23.90;45.80
21425;DHT22;10873;51.132;16.848;2023-01-26T12:24:42;23.90;46.50
21425;DHT22;10873;51.132;16.848;2023-01-26T12:27:16;23.90;45.80
21425;DHT22;10873;51.132;16.848;2023-01-26T12:29:49;23.80;45.80
21425;DHT22;10873;51.132;16.848;2023-01-26T12:32:17;23.90;45.90
21425;DHT22;10873;51.132;16.848;2023-01-26T12:34:43;23.90;46.00
21425;DHT22;10873;51.132;16.848;2023-01-26T12:37:30;23.80;48.10
21425;DHT22;10873;51.132;16.848;2023-01-26T12:40:07;23.80;48.80
21425;DHT22;10873;51.132;16.848;2023-01-26T12:42:42;23.90;48.70
21425;DHT22;10873;51.132;16.848;2023-01-26T12:45:13;23.90;48.60
21425;DHT22;10873;51.132;16.848;2023-01-26T12:47:46;23.90;48.90
21425;DHT22;10873;51.132;16.848;2023-01-26T12:50:23;23.80;48.80
21425;DHT22;10873;51.132;16.848;2023-01-26T12:52:54;23.80;48.70
21425;DHT22;10873;51.132;16.848;2023-01-26T12:55:24;23.80;48.70
21425;DHT22;10873;51.132;16.848;2023-01-26T12:57:53;23.70;48.70
21425;DHT22;10873;51.132;16.848;2023-01-26T13:00:23;23.70;48.70
21425;DHT22;10873;51.132;16.848;2023-01-26T13:02:54;23.70;48.70
21425;DHT22;10873;51.132;16.848;2023-01-26T13:05:26;23.70;48.70
21425;DHT22;10873;51.132;16.848;2023-01-26T13:07:54;23.70;48.60
21425;DHT22;10873;51.132;16.848;2023-01-26T13:10:23;23.60;48.50
21425;DHT22;10873;51.132;16.848;2023-01-26T13:12:52;23.60;48.50
21425;DHT22;10873;51.132;16.848;2023-01-26T13:15:20;23.70;48.50
21425;DHT22;10873;51.132;16.848;2023-01-26T13:18:04;23.60;48.30
21425;DHT22;10873;51.132;16.848;2023-01-26T13:20:48;23.70;48.30
21425;DHT22;10873;51.132;16.848;2023-01-26T13:23:38;23.60;48.00
21425;DHT22;10873;51.132;16.848;2023-01-26T13:26:19;23.70;48.30
21425;DHT22;10873;51.132;16.848;2023-01-26T13:28:46;23.60;49.00
21425;DHT22;10873;51.132;16.848;2023-01-26T13:31:29;23.60;48.30
21425;DHT22;10873;51.132;16.848;2023-01-26T13:33:58;23.60;48.30
21425;DHT22;10873;51.132;16.848;2023-01-26T13:36:27;23.60;48.30
21425;DHT22;10873;51.132;16.848;2023-01-26T13:39:00;23.60;48.30
21425;DHT22;10873;51.132;16.848;2023-01-26T13:41:27;23.60;48.30
21425;DHT22;10873;51.132;16.848;2023-01-26T13:43:56;23.60;48.40
21425;DHT22;10873;51.132;16.848;2023-01-26T13:46:27;23.60;48.40
21425;DHT22;10873;51.132;16.848;2023-01-26T13:48:56;23.60;48.40
21425;DHT22;10873;51.132;16.848;2023-01-26T13:51:24;23.60;48.30
21425;DHT22;10873;51.132;16.848;2023-01-26T13:53:59;23.60;48.40
21425;DHT22;10873;51.132;16.848;2023-01-26T13:56:29;23.50;48.30
21425;DHT22;10873;51.132;16.848;2023-01-26T13:59:08;23.50;48.30
21425;DHT22;10873;51.132;16.848;2023-01-26T14:01:40;23.50;48.20
21425;DHT22;10873;51.132;16.848;2023-01-26T14:04:12;23.50;48.30
21425;DHT22;10873;51.132;16.848;2023-01-26T14:06:38;23.50;48.30
21425;DHT22;10873;51.132;16.848;2023-01-26T14:09:10;23.50;48.30
21425;DHT22;10873;51.132;16.848;2023-01-26T14:11:38;23.50;48.30
21425;DHT22;10873;51.132;16.848;2023-01-26T14:14:05;23.50;48.30
21425;DHT22;10873;51.132;16.848;2023-01-26T14:16:33;23.50;48.30
21425;DHT22;10873;51.132;16.848;2023-01-26T14:19:04;23.50;48.30
21425;DHT22;10873;51.132;16.848;2023-01-26T14:21:30;23.50;48.20
21425;DHT22;10873;51.132;16.848;2023-01-26T14:23:58;23.50;48.10
21425;DHT22;10873;51.132;16.848;2023-01-26T14:26:29;23.50;48.00
21425;DHT22;10873;51.132;16.848;2023-01-26T14:28:57;23.40;47.90
21425;DHT22;10873;51.132;16.848;2023-01-26T14:31:25;23.40;47.80
21425;DHT22;10873;51.132;16.848;2023-01-26T14:33:53;23.50;47.80
21425;DHT22;10873;51.132;16.848;2023-01-26T14:36:23;23.50;48.00
21425;DHT22;10873;51.132;16.848;2023-01-26T14:38:52;23.50;48.00
21425;DHT22;10873;51.132;16.848;2023-01-26T14:41:20;23.50;48.00
21425;DHT22;10873;51.132;16.848;2023-01-26T14:43:50;23.50;48.10
21425;DHT22;10873;51.132;16.848;2023-01-26T14:46:17;23.50;48.10
21425;DHT22;10873;51.132;16.848;2023-01-26T14:48:50;23.40;48.10
21425;DHT22;10873;51.132;16.848;2023-01-26T14:51:19;23.50;48.10
21425;DHT22;10873;51.132;16.848;2023-01-26T14:53:51;23.50;48.10
21425;DHT22;10873;51.132;16.848;2023-01-26T14:56:19;23.50;48.20
21425;DHT22;10873;51.132;16.848;2023-01-26T14:58:50;23.50;48.20
21425;DHT22;10873;51.132;16.848;2023-01-26T15:01:22;23.50;48.40
21425;DHT22;10873;51.132;16.848;2023-01-26T15:03:54;23.50;48.50
21425;DHT22;10873;51.132;16.848;2023-01-26T15:06:25;23.50;48.70
21425;DHT22;10873;51.132;16.848;2023-01-26T15:08:59;23.50;48.80
21425;DHT22;10873;51.132;16.848;2023-01-26T15:11:36;23.50;48.80
21425;DHT22;10873;51.132;16.848;2023-01-26T15:14:33;23.50;49.00
21425;DHT22;10873;51.132;16.848;2023-01-26T15:16:59;23.50;49.00
21425;DHT22;10873;51.132;16.848;2023-01-26T15:19:31;23.50;49.10
21425;DHT22;10873;51.132;16.848;2023-01-26T15:21:57;23.50;49.20
21425;DHT22;10873;51.132;16.848;2023-01-26T15:24:23;23.50;49.30
21425;DHT22;10873;51.132;16.848;2023-01-26T15:26:49;23.50;49.40
21425;DHT22;10873;51.132;16.848;2023-01-26T15:29:22;23.50;49.40
21425;DHT22;10873;51.132;16.848;2023-01-26T15:31:52;23.50;48.70
21425;DHT22;10873;51.132;16.848;2023-01-26T15:34:30;23.50;49.20
21425;DHT22;10873;51.132;16.848;2023-01-26T15:36:58;23.50;50.00